Time;durP1;ratioP1;P1;durP2;ratioP2;P2;SDS_P1;SDS_P2;PMS_P1;PMS_P2;Temp;Humidity;BMP_temperature;BMP_pressure;BME280_temperature;BME280_humidity;BME280_pressure;Samples;Min_cycle;Max_cycle;Signal;HPM_P1;HPM_P2
2022/04/22 00:02:13;;;;;;;;;;;;;;;13.40;56.56;100637.75;4418898;32;19974;-69
2022/04/22 00:04:39;;;;;;;;;;;;;;;13.60;56.42;100643.84;4413298;32;20060;-69
2022/04/22 00:07:05;;;;;;;;;;;;;;;13.32;57.41;100639.25;4415560;32;19958;-69
2022/04/22 00:09:30;;;;;;;;;;;;;;;13.53;56.76;100637.69;4418581;32;20301;-69
2022/04/22 00:11:56;;;;;;;;;;;;;;;13.57;56.54;100639.09;4414806;32;20399;-69
2022/04/22 00:14:22;;;;;;;;;;;;;;;13.67;56.37;100625.81;4412227;32;20360;-69
2022/04/22 00:16:48;;;;;;;;;;;;;;;13.20;57.70;100631.62;4414480;32;19987;-69
2022/04/22 00:19:13;;;;;;;;;;;;;;;13.32;57.55;100627.94;4415037;32;19973;-69
2022/04/22 00:21:41;;;;;;;;;;;;;;;13.39;57.58;100627.69;4413003;32;20009;-69
2022/04/22 00:24:07;;;;;;;;;;;;;;;13.40;57.69;100626.44;4414547;32;20009;-69
2022/04/22 00:26:33;;;;;;;;;;;;;;;13.29;57.43;100623.22;4413562;32;20034;-69
2022/04/22 00:28:58;;;;;;;;;;;;;;;13.33;57.94;100617.44;4415252;32;20111;-69
2022/04/22 00:31:24;;;;;;;;;;;;;;;13.36;57.72;100617.31;4413046;32;19953;-69
2022/04/22 00:33:49;;;;;;;;;;;;;;;13.40;57.87;100611.50;4413814;32;20300;-69
2022/04/22 00:36:15;;;;;;;;;;;;;;;13.47;57.73;100608.44;4414419;32;20307;-69
2022/04/22 00:38:41;;;;;;;;;;;;;;;13.44;58.10;100606.53;4416185;32;20395;-69
2022/04/22 00:41:06;;;;;;;;;;;;;;;13.55;57.53;100613.34;4414106;32;20410;-69
2022/04/22 00:43:40;;;;;;;;;;;;;;;13.38;57.77;100600.66;4417088;32;20424;-69
2022/04/22 00:46:06;;;;;;;;;;;;;;;13.37;57.87;100604.75;4415773;32;20442;-69
2022/04/22 00:48:32;;;;;;;;;;;;;;;13.48;57.45;100602.31;4418461;32;20000;-69
2022/04/22 00:50:57;;;;;;;;;;;;;;;13.34;57.56;100597.19;4414540;32;19946;-69
2022/04/22 00:53:25;;;;;;;;;;;;;;;13.19;58.46;100601.78;4414712;32;19985;-69
2022/04/22 00:55:51;;;;;;;;;;;;;;;13.37;58.01;100606.78;4413261;32;19949;-69
2022/04/22 00:58:16;;;;;;;;;;;;;;;13.49;57.74;100598.22;4416407;32;19950;-69
2022/04/22 01:00:43;;;;;;;;;;;;;;;13.66;57.26;100599.56;4419443;32;19953;-69
2022/04/22 01:03:09;;;;;;;;;;;;;;;13.84;56.24;100605.34;4414394;32;20328;-69
2022/04/22 01:11:07;;;;;;;;;;;;;;;13.22;58.75;100583.91;4415329;32;20701;-69
2022/04/22 01:13:33;;;;;;;;;;;;;;;13.12;59.24;100578.66;4413469;32;20003;-69
2022/04/22 01:15:59;;;;;;;;;;;;;;;12.94;59.54;100579.28;4413435;32;19985;-70
2022/04/22 01:18:24;;;;;;;;;;;;;;;13.25;58.70;100587.84;4414147;32;20043;-69
2022/04/22 01:20:50;;;;;;;;;;;;;;;13.19;58.87;100581.25;4415049;32;20308;-69
2022/04/22 01:23:15;;;;;;;;;;;;;;;12.96;59.60;100576.00;4414381;32;19973;-69
2022/04/22 01:25:41;;;;;;;;;;;;;;;13.05;59.60;100576.09;4413048;32;19989;-69
2022/04/22 01:28:07;;;;;;;;;;;;;;;13.06;59.47;100563.53;4417726;32;20003;-69
2022/04/22 01:30:32;;;;;;;;;;;;;;;13.20;58.98;100568.69;4418896;32;19949;-69
2022/04/22 01:32:59;;;;;;;;;;;;;;;12.90;60.07;100572.19;4415669;32;19961;-69
2022/04/22 01:35:24;;;;;;;;;;;;;;;12.83;59.44;100567.59;4415915;32;20008;-69
2022/04/22 01:37:50;;;;;;;;;;;;;;;12.59;60.62;100579.75;4421360;32;20005;-69
2022/04/22 01:40:16;;;;;;;;;;;;;;;12.36;61.59;100572.47;4418121;32;20338;-69
2022/04/22 01:42:42;;;;;;;;;;;;;;;12.57;60.32;100579.41;4417655;32;19969;-69
2022/04/22 01:45:08;;;;;;;;;;;;;;;12.53;60.86;100573.91;4410879;32;20554;-69
2022/04/22 01:47:34;;;;;;;;;;;;;;;12.59;60.74;100576.94;4416851;32;20363;-69
2022/04/22 01:50:00;;;;;;;;;;;;;;;12.44;61.15;100582.28;4418640;32;20017;-69
2022/04/22 01:52:26;;;;;;;;;;;;;;;12.59;60.58;100572.09;4417957;32;20003;-69
2022/04/22 01:54:53;;;;;;;;;;;;;;;12.73;60.17;100560.28;4417751;32;20317;-69
2022/04/22 01:57:22;;;;;;;;;;;;;;;12.86;59.62;100563.81;4416124;32;19957;-69
2022/04/22 01:59:48;;;;;;;;;;;;;;;13.00;59.19;100552.06;4421047;32;20013;-69
2022/04/22 02:02:14;;;;;;;;;;;;;;;13.17;58.64;100555.47;4415479;32;19961;-69
2022/04/22 02:04:40;;;;;;;;;;;;;;;13.17;58.72;100559.09;4413413;32;20008;-69
2022/04/22 02:07:06;;;;;;;;;;;;;;;12.98;59.04;100548.09;4418177;32;19989;-69
2022/04/22 02:09:32;;;;;;;;;;;;;;;12.97;58.92;100544.47;4415779;32;20012;-69
2022/04/22 02:11:58;;;;;;;;;;;;;;;13.03;59.06;100539.03;4414876;32;19965;-69
2022/04/22 02:14:25;;;;;;;;;;;;;;;13.03;59.10;100537.00;4415239;32;20042;-69
2022/04/22 02:16:52;;;;;;;;;;;;;;;12.88;59.27;100529.47;4415340;32;19965;-69
2022/04/22 02:19:18;;;;;;;;;;;;;;;12.97;58.77;100530.34;4416487;32;19960;-69
2022/04/22 02:21:43;;;;;;;;;;;;;;;13.02;58.91;100535.44;4416254;32;19997;-69
2022/04/22 02:24:10;;;;;;;;;;;;;;;13.22;58.25;100535.09;4414557;32;19996;-69
2022/04/22 02:29:21;;;;;;;;;;;;;;;13.14;58.62;100520.47;4415638;32;21376;-69
2022/04/22 02:31:47;;;;;;;;;;;;;;;13.31;57.32;100513.31;4417157;32;20019;-69
2022/04/22 02:34:13;;;;;;;;;;;;;;;13.20;57.94;100518.59;4415679;32;20331;-69
2022/04/22 02:36:41;;;;;;;;;;;;;;;13.22;57.66;100518.13;4417750;32;20040;-69
2022/04/22 02:39:07;;;;;;;;;;;;;;;13.00;58.61;100515.34;4416040;32;20411;-69
2022/04/22 02:47:04;;;;;;;;;;;;;;;13.22;58.00;100518.13;4414985;32;19965;-69
2022/04/22 02:49:30;;;;;;;;;;;;;;;13.19;57.78;100519.84;4418333;32;20333;-69
2022/04/22 02:51:55;;;;;;;;;;;;;;;13.03;58.21;100507.97;4415309;32;19997;-69
2022/04/22 02:54:21;;;;;;;;;;;;;;;13.21;58.01;100502.44;4416623;32;19962;-69
2022/04/22 02:56:50;;;;;;;;;;;;;;;13.14;58.21;100514.81;4414651;32;19969;-69
2022/04/22 02:59:16;;;;;;;;;;;;;;;13.16;57.93;100517.94;4418474;32;19997;-69
2022/04/22 03:01:43;;;;;;;;;;;;;;;13.18;57.80;100518.28;4413609;32;19949;-69
2022/04/22 03:04:09;;;;;;;;;;;;;;;13.07;58.01;100509.41;4414371;32;20007;-68
2022/04/22 03:06:38;;;;;;;;;;;;;;;13.07;58.43;100511.47;4410692;32;20476;-68
2022/04/22 03:09:04;;;;;;;;;;;;;;;13.02;58.29;100514.87;4413960;32;19973;-68
2022/04/22 03:11:30;;;;;;;;;;;;;;;12.80;58.77;100511.25;4414748;32;19953;-69
2022/04/22 03:13:55;;;;;;;;;;;;;;;12.79;58.86;100506.84;4414213;32;19993;-69
2022/04/22 03:16:24;;;;;;;;;;;;;;;12.84;58.27;100509.88;4414780;32;19977;-69
2022/04/22 03:18:49;;;;;;;;;;;;;;;12.74;59.25;100502.56;4419349;32;19949;-68
2022/04/22 03:21:15;;;;;;;;;;;;;;;12.81;58.72;100510.78;4418645;32;20040;-69
2022/04/22 03:23:40;;;;;;;;;;;;;;;12.68;59.27;100498.75;4415312;32;19968;-69
2022/04/22 03:26:07;;;;;;;;;;;;;;;12.88;58.75;100502.03;4416257;32;20009;-69
2022/04/22 03:28:32;;;;;;;;;;;;;;;13.28;57.81;100491.66;4414839;32;20339;-69
2022/04/22 03:30:58;;;;;;;;;;;;;;;13.39;57.38;100491.22;4417464;32;20048;-68
2022/04/22 03:33:24;;;;;;;;;;;;;;;13.42;56.59;100493.94;4413804;32;20004;-68
2022/04/22 03:35:50;;;;;;;;;;;;;;;13.45;56.27;100481.69;4418694;32;19953;-68
2022/04/22 03:38:18;;;;;;;;;;;;;;;13.48;56.63;100491.28;4417483;32;20000;-69
2022/04/22 03:40:45;;;;;;;;;;;;;;;13.46;56.51;100494.56;4414842;32;19972;-69
2022/04/22 03:43:10;;;;;;;;;;;;;;;13.51;56.12;100484.69;4413446;32;19949;-68
2022/04/22 03:45:36;;;;;;;;;;;;;;;13.56;56.17;100487.69;4414257;32;20326;-69
2022/04/22 03:48:04;;;;;;;;;;;;;;;13.52;55.97;100487.06;4412634;32;20016;-68
2022/04/22 03:50:30;;;;;;;;;;;;;;;13.51;56.09;100487.53;4416950;32;20577;-69
2022/04/22 03:52:56;;;;;;;;;;;;;;;13.51;56.26;100474.19;4415194;32;20335;-69
2022/04/22 03:55:21;;;;;;;;;;;;;;;13.24;56.80;100473.25;4415863;32;19991;-69
2022/04/22 03:58:18;;;;;;;;;;;;;;;13.04;57.34;100478.50;4418058;32;19989;-69
2022/04/22 04:00:33;;;;;;;;;;;;;;;13.10;57.22;100479.47;4413975;32;20049;-69
2022/04/22 04:03:00;;;;;;;;;;;;;;;13.01;57.27;100482.22;4416640;32;20406;-69
2022/04/22 04:05:25;;;;;;;;;;;;;;;13.11;57.28;100478.22;4416854;32;20419;-69
2022/04/22 04:07:52;;;;;;;;;;;;;;;13.03;57.92;100474.87;4414755;32;20497;-69
2022/04/22 04:16:03;;;;;;;;;;;;;;;13.40;56.35;100470.97;4415929;32;19976;-69
2022/04/22 04:18:30;;;;;;;;;;;;;;;13.31;57.11;100470.94;4412672;32;19950;-69
2022/04/22 04:23:42;;;;;;;;;;;;;;;12.78;58.71;100474.19;4415110;32;19977;-69
2022/04/22 04:26:09;;;;;;;;;;;;;;;12.80;58.72;100466.06;4415607;32;20394;-68
2022/04/22 04:28:34;;;;;;;;;;;;;;;12.77;59.32;100466.97;4417586;32;20300;-69
2022/04/22 04:31:01;;;;;;;;;;;;;;;12.98;59.19;100469.78;4417651;32;19968;-69
2022/04/22 04:33:27;;;;;;;;;;;;;;;12.86;60.06;100462.16;4415123;32;19999;-68
2022/04/22 04:35:53;;;;;;;;;;;;;;;12.71;61.08;100460.34;4417240;32;19950;-70
2022/04/22 04:38:20;;;;;;;;;;;;;;;12.24;63.35;100466.06;4415634;32;19968;-69
2022/04/22 04:40:46;;;;;;;;;;;;;;;12.05;64.57;100462.31;4416371;32;19964;-68
2022/04/22 04:43:11;;;;;;;;;;;;;;;12.28;63.72;100463.94;4415541;32;19997;-68
2022/04/22 04:45:37;;;;;;;;;;;;;;;12.42;63.70;100469.06;4417166;32;20379;-70
2022/04/22 04:48:03;;;;;;;;;;;;;;;12.48;63.55;100464.41;4413192;32;19957;-70
2022/04/22 04:50:29;;;;;;;;;;;;;;;12.63;62.88;100457.00;4416332;32;20437;-70
2022/04/22 04:52:55;;;;;;;;;;;;;;;12.56;63.05;100454.44;4415120;32;19966;-70
2022/04/22 04:55:20;;;;;;;;;;;;;;;12.82;62.00;100450.22;4414985;32;20006;-69
2022/04/22 04:57:46;;;;;;;;;;;;;;;12.81;61.97;100454.31;4415713;32;20035;-68
2022/04/22 05:00:11;;;;;;;;;;;;;;;13.01;61.94;100456.81;4413700;32;19961;-68
2022/04/22 05:02:38;;;;;;;;;;;;;;;12.96;61.22;100448.91;4415852;32;20248;-69
2022/04/22 05:05:05;;;;;;;;;;;;;;;12.95;61.49;100455.81;4416415;32;19942;-69
2022/04/22 05:07:31;;;;;;;;;;;;;;;12.77;61.77;100455.69;4417651;32;20430;-69
2022/04/22 05:09:57;;;;;;;;;;;;;;;12.98;61.24;100458.47;4411676;32;20031;-68
2022/04/22 05:12:23;;;;;;;;;;;;;;;12.74;61.75;100460.22;4418601;32;19950;-68
2022/04/22 05:14:48;;;;;;;;;;;;;;;12.98;61.10;100460.53;4418337;32;20306;-68
2022/04/22 05:17:14;;;;;;;;;;;;;;;13.05;61.70;100460.28;4418749;32;20001;-69
2022/04/22 05:19:40;;;;;;;;;;;;;;;13.15;60.92;100464.72;4417757;32;19953;-69
2022/04/22 05:22:06;;;;;;;;;;;;;;;13.02;61.37;100464.03;4417159;32;20372;-69
2022/04/22 05:24:32;;;;;;;;;;;;;;;12.80;61.86;100458.38;4416442;32;19980;-69
2022/04/22 05:26:59;;;;;;;;;;;;;;;13.02;61.21;100461.19;4417326;32;20340;-69
2022/04/22 05:32:47;;;;;;;;;;;;;;;12.99;61.70;100462.94;4418737;32;19957;-68
2022/04/22 05:34:56;;;;;;;;;;;;;;;13.14;61.38;100463.97;4417510;32;20407;-69
2022/04/22 05:37:22;;;;;;;;;;;;;;;13.02;61.30;100456.34;4417669;32;20008;-69
2022/04/22 05:39:47;;;;;;;;;;;;;;;13.17;60.85;100459.41;4415554;32;20344;-69
2022/04/22 05:42:13;;;;;;;;;;;;;;;13.14;60.82;100455.47;4418726;32;20395;-69
2022/04/22 05:44:39;;;;;;;;;;;;;;;13.21;60.60;100460.84;4417407;32;20001;-69
2022/04/22 05:47:05;;;;;;;;;;;;;;;13.32;60.12;100449.12;4419504;32;20334;-69
2022/04/22 05:49:30;;;;;;;;;;;;;;;13.48;59.91;100455.31;4422071;32;20300;-69
2022/04/22 05:51:56;;;;;;;;;;;;;;;13.38;60.27;100456.50;4416116;32;20371;-68
2022/04/22 05:54:21;;;;;;;;;;;;;;;13.67;59.23;100453.31;4413062;32;19953;-68
2022/04/22 05:56:47;;;;;;;;;;;;;;;13.68;59.21;100449.25;4416843;32;19967;-69
2022/04/22 05:59:12;;;;;;;;;;;;;;;13.70;59.00;100463.72;4415526;32;21234;-69
2022/04/22 06:01:38;;;;;;;;;;;;;;;13.64;58.86;100454.25;4420823;32;19961;-68
2022/04/22 06:04:03;;;;;;;;;;;;;;;13.56;59.33;100448.09;4418056;32;20269;-68
2022/04/22 06:06:29;;;;;;;;;;;;;;;13.73;59.10;100455.09;4416657;32;19971;-68
2022/04/22 06:11:40;;;;;;;;;;;;;;;13.62;58.62;100460.37;4416515;32;20088;-68
2022/04/22 06:14:05;;;;;;;;;;;;;;;13.70;58.62;100456.03;4416754;32;20460;-69
2022/04/22 06:16:31;;;;;;;;;;;;;;;13.51;58.99;100450.78;4417961;32;19989;-69
2022/04/22 06:18:56;;;;;;;;;;;;;;;13.80;58.41;100456.81;4420006;32;20020;-69
2022/04/22 06:21:22;;;;;;;;;;;;;;;13.86;58.64;100455.75;4415994;32;20273;-69
2022/04/22 06:23:47;;;;;;;;;;;;;;;14.04;57.75;100455.78;4415664;32;20370;-69
2022/04/22 06:26:13;;;;;;;;;;;;;;;14.08;57.27;100455.62;4415568;32;19958;-69
2022/04/22 06:28:39;;;;;;;;;;;;;;;14.50;56.35;100444.50;4417954;32;19953;-69
2022/04/22 06:31:04;;;;;;;;;;;;;;;14.51;56.24;100455.38;4412662;32;20031;-69
2022/04/22 06:33:30;;;;;;;;;;;;;;;14.46;56.53;100452.38;4416441;32;19953;-69
2022/04/22 06:35:58;;;;;;;;;;;;;;;14.53;56.36;100440.72;4416470;32;20063;-69
2022/04/22 06:38:24;;;;;;;;;;;;;;;14.07;57.32;100437.88;4415030;32;19949;-69
2022/04/22 06:46:21;;;;;;;;;;;;;;;14.70;55.90;100445.59;4403932;32;19954;-69
2022/04/22 06:48:48;;;;;;;;;;;;;;;14.95;55.30;100450.94;4415498;32;20021;-69
2022/04/22 06:51:17;;;;;;;;;;;;;;;14.87;55.18;100451.72;4408693;32;20031;-69
2022/04/22 06:53:43;;;;;;;;;;;;;;;14.37;56.90;100455.22;4409556;32;19991;-69
2022/04/22 06:56:09;;;;;;;;;;;;;;;14.79;56.15;100453.31;4409660;32;20332;-69
2022/04/22 06:58:37;;;;;;;;;;;;;;;14.72;56.32;100457.25;4416669;32;19953;-70
2022/04/22 07:01:03;;;;;;;;;;;;;;;14.54;56.45;100453.66;4409220;32;20000;-70
2022/04/22 07:03:29;;;;;;;;;;;;;;;14.67;56.26;100457.87;4411613;32;19994;-70
2022/04/22 07:05:55;;;;;;;;;;;;;;;14.68;56.19;100455.81;4407814;32;19977;-70
2022/04/22 07:08:21;;;;;;;;;;;;;;;14.67;56.14;100454.25;4408383;32;20311;-70
2022/04/22 07:10:48;;;;;;;;;;;;;;;14.50;56.93;100461.50;4410541;32;20049;-70
2022/04/22 07:13:16;;;;;;;;;;;;;;;14.27;57.62;100462.12;4412904;32;20012;-70
2022/04/22 07:15:44;;;;;;;;;;;;;;;14.41;57.57;100456.63;4413347;32;20037;-70
2022/04/22 07:18:10;;;;;;;;;;;;;;;14.58;57.07;100462.75;4414848;32;20049;-70
2022/04/22 07:20:37;;;;;;;;;;;;;;;14.55;56.84;100458.84;4414001;32;20694;-70
2022/04/22 07:23:03;;;;;;;;;;;;;;;14.63;57.17;100462.91;4411712;32;19957;-70
2022/04/22 07:25:29;;;;;;;;;;;;;;;14.60;57.36;100451.75;4410766;32;20001;-70
2022/04/22 07:27:56;;;;;;;;;;;;;;;15.12;55.57;100451.31;4416185;32;19993;-70
2022/04/22 07:30:23;;;;;;;;;;;;;;;14.89;56.32;100441.50;4412320;32;20035;-70
2022/04/22 07:32:49;;;;;;;;;;;;;;;14.78;56.25;100443.22;4409986;32;20405;-70
2022/04/22 07:35:16;;;;;;;;;;;;;;;14.97;56.17;100439.12;4408285;32;20426;-71
2022/04/22 07:37:44;;;;;;;;;;;;;;;15.05;55.70;100443.16;4406773;32;20410;-70
2022/04/22 07:40:10;;;;;;;;;;;;;;;14.90;55.85;100445.09;4411384;32;20920;-70
2022/04/22 07:42:36;;;;;;;;;;;;;;;15.06;55.59;100439.06;4408287;32;20031;-71
2022/04/22 07:47:49;;;;;;;;;;;;;;;15.15;55.08;100433.37;4408931;32;19981;-71
2022/04/22 07:50:14;;;;;;;;;;;;;;;15.42;54.81;100439.78;4406943;32;20374;-71
2022/04/22 07:52:44;;;;;;;;;;;;;;;15.36;55.06;100436.00;4410397;32;20021;-71
2022/04/22 07:55:10;;;;;;;;;;;;;;;15.58;54.34;100430.88;4413917;32;20011;-71
2022/04/22 07:57:36;;;;;;;;;;;;;;;15.80;53.82;100428.53;4415967;32;19981;-71
2022/04/22 08:00:02;;;;;;;;;;;;;;;15.91;53.49;100443.00;4407669;32;20007;-71
2022/04/22 08:02:28;;;;;;;;;;;;;;;15.96;53.22;100442.31;4411133;32;20005;-71
2022/04/22 08:04:55;;;;;;;;;;;;;;;16.02;53.00;100429.03;4413099;32;20031;-71
2022/04/22 08:07:20;;;;;;;;;;;;;;;15.92;52.82;100430.37;4411306;32;19967;-71
2022/04/22 08:09:46;;;;;;;;;;;;;;;16.37;52.27;100436.97;4412789;32;19992;-71
2022/04/22 08:12:14;;;;;;;;;;;;;;;16.59;51.68;100440.28;4411777;32;20332;-71
2022/04/22 08:14:39;;;;;;;;;;;;;;;16.87;50.85;100438.75;4375055;32;20524;-71
2022/04/22 08:17:05;;;;;;;;;;;;;;;17.07;49.83;100433.19;4365039;32;20402;-71
2022/04/22 08:19:30;;;;;;;;;;;;;;;17.54;48.73;100436.59;4368892;32;23683;-71
2022/04/22 08:21:57;;;;;;;;;;;;;;;17.96;48.12;100435.38;4371786;32;20594;-71
2022/04/22 08:24:22;;;;;;;;;;;;;;;17.93;47.91;100434.31;4373808;32;19997;-71
2022/04/22 08:26:48;;;;;;;;;;;;;;;18.39;46.91;100437.28;4366405;32;20007;-71
2022/04/22 08:29:14;;;;;;;;;;;;;;;18.40;46.83;100436.78;4367835;32;20285;-71
2022/04/22 08:31:40;;;;;;;;;;;;;;;18.33;46.78;100434.34;4394895;32;20519;-72
2022/04/22 08:34:06;;;;;;;;;;;;;;;18.11;47.36;100434.06;4394386;32;20016;-71
2022/04/22 08:36:33;;;;;;;;;;;;;;;18.13;47.10;100430.72;4378565;32;20026;-72
2022/04/22 08:38:58;;;;;;;;;;;;;;;18.13;47.43;100440.03;4374951;32;20030;-72
2022/04/22 08:41:24;;;;;;;;;;;;;;;18.36;46.48;100432.53;4367639;32;20009;-71
2022/04/22 08:43:51;;;;;;;;;;;;;;;17.87;47.57;100439.16;4376954;32;20393;-71
2022/04/22 08:51:50;;;;;;;;;;;;;;;19.29;44.06;100432.78;4367216;32;20766;-71
2022/04/22 08:54:18;;;;;;;;;;;;;;;19.63;43.57;100435.41;4369906;32;20027;-71
2022/04/22 08:56:44;;;;;;;;;;;;;;;19.23;43.86;100420.53;4414076;32;20551;-71
2022/04/22 08:59:09;;;;;;;;;;;;;;;19.06;44.06;100420.41;4414800;32;20009;-71
2022/04/22 09:01:37;;;;;;;;;;;;;;;18.87;44.76;100418.41;4415806;32;20016;-71
2022/04/22 09:04:04;;;;;;;;;;;;;;;19.01;44.26;100408.91;4414351;32;20357;-71
2022/04/22 09:06:30;;;;;;;;;;;;;;;19.13;43.98;100414.22;4419556;32;20029;-70
2022/04/22 09:08:56;;;;;;;;;;;;;;;19.35;43.19;100405.88;4416940;32;20382;-71
2022/04/22 09:11:23;;;;;;;;;;;;;;;19.71;42.74;100407.16;4417019;32;19993;-70
2022/04/22 09:13:49;;;;;;;;;;;;;;;19.63;42.88;100404.00;4418073;32;19957;-71
2022/04/22 09:16:22;;;;;;;;;;;;;;;19.74;42.91;100409.81;4414426;32;20489;-71
2022/04/22 09:18:48;;;;;;;;;;;;;;;19.87;42.50;100399.97;4415548;32;19964;-71
2022/04/22 09:21:14;;;;;;;;;;;;;;;20.19;41.86;100401.50;4411997;32;20001;-71
2022/04/22 09:23:40;;;;;;;;;;;;;;;20.67;40.90;100399.28;4416461;32;20108;-71
2022/04/22 09:26:18;;;;;;;;;;;;;;;20.74;40.83;100398.81;4412847;32;19988;-71
2022/04/22 09:28:54;;;;;;;;;;;;;;;20.78;40.60;100388.69;4413024;32;19953;-71
2022/04/22 09:31:20;;;;;;;;;;;;;;;21.19;39.73;100395.50;4414545;32;20502;-71
2022/04/22 09:33:47;;;;;;;;;;;;;;;20.98;40.27;100379.09;4413362;32;20461;-71
2022/04/22 09:44:35;;;;;;;;;;;;;;;21.40;39.64;100387.41;4416532;32;19953;-70
2022/04/22 09:47:09;;;;;;;;;;;;;;;21.51;39.34;100393.91;4420198;32;20407;-71
2022/04/22 09:49:39;;;;;;;;;;;;;;;21.83;38.64;100385.81;4419284;32;19989;-70
2022/04/22 09:52:05;;;;;;;;;;;;;;;21.84;38.28;100378.00;4418583;32;20022;-71
2022/04/22 09:54:31;;;;;;;;;;;;;;;21.89;38.07;100377.19;4416375;32;20417;-70
2022/04/22 09:56:58;;;;;;;;;;;;;;;21.94;37.76;100376.41;4417296;32;19957;-71
2022/04/22 09:59:24;;;;;;;;;;;;;;;22.20;37.26;100386.22;4414191;32;19992;-70
2022/04/22 10:01:50;;;;;;;;;;;;;;;21.99;37.22;100372.75;4414158;32;19997;-70
2022/04/22 10:04:17;;;;;;;;;;;;;;;22.14;37.00;100378.94;4415019;32;20127;-71
2022/04/22 10:06:44;;;;;;;;;;;;;;;22.49;36.16;100384.78;4418141;32;19962;-70
2022/04/22 10:09:11;;;;;;;;;;;;;;;22.60;35.82;100373.25;4418284;32;20445;-70
2022/04/22 10:11:36;;;;;;;;;;;;;;;22.84;34.41;100381.97;4418890;32;20001;-70
2022/04/22 10:14:05;;;;;;;;;;;;;;;22.78;34.30;100379.16;4416526;32;20405;-70
2022/04/22 10:16:32;;;;;;;;;;;;;;;23.15;33.76;100364.25;4421889;32;19973;-71
2022/04/22 10:18:58;;;;;;;;;;;;;;;23.24;33.06;100367.59;4419231;32;19965;-70
2022/04/22 10:21:23;;;;;;;;;;;;;;;23.66;32.10;100368.25;4418083;32;19992;-70
2022/04/22 10:23:50;;;;;;;;;;;;;;;23.84;31.23;100370.41;4413722;32;19961;-71
2022/04/22 10:26:16;;;;;;;;;;;;;;;24.41;30.07;100355.59;4416921;32;20370;-70
2022/04/22 10:28:44;;;;;;;;;;;;;;;24.83;28.73;100363.38;4420507;32;20003;-69
2022/04/22 10:31:09;;;;;;;;;;;;;;;25.14;26.55;100369.16;4417956;32;20473;-70
2022/04/22 10:33:39;;;;;;;;;;;;;;;24.90;25.93;100366.41;4419466;32;20004;-70
2022/04/22 10:36:05;;;;;;;;;;;;;;;24.97;25.40;100359.22;4416997;32;20440;-70
2022/04/22 10:38:38;;;;;;;;;;;;;;;24.78;25.68;100365.03;4419543;32;20009;-70
2022/04/22 10:41:12;;;;;;;;;;;;;;;25.07;25.10;100378.44;4416463;32;20021;-69
2022/04/22 10:43:38;;;;;;;;;;;;;;;24.51;25.39;100369.03;4406107;32;20320;-70
2022/04/22 10:49:12;;;;;;;;;;;;;;;24.51;25.69;100366.16;4420342;32;20277;-70
2022/04/22 10:52:00;;;;;;;;;;;;;;;24.73;24.94;100362.25;4402122;32;19950;-71
2022/04/22 10:54:45;;;;;;;;;;;;;;;24.92;24.81;100372.41;4408157;32;20408;-70
2022/04/22 10:57:19;;;;;;;;;;;;;;;24.87;25.02;100352.31;4412016;32;20024;-70
2022/04/22 10:59:45;;;;;;;;;;;;;;;25.37;24.59;100353.06;4410001;32;21375;-70
2022/04/22 11:02:28;;;;;;;;;;;;;;;25.62;24.59;100350.81;4405857;32;19954;-70
2022/04/22 11:05:13;;;;;;;;;;;;;;;25.75;24.40;100344.25;4405630;32;19989;-70
2022/04/22 11:07:56;;;;;;;;;;;;;;;25.77;24.05;100350.25;4407689;32;20632;-70
2022/04/22 11:10:24;;;;;;;;;;;;;;;25.99;23.52;100347.75;4407220;32;19965;-70
2022/04/22 11:12:51;;;;;;;;;;;;;;;26.64;22.92;100344.00;4408925;32;21134;-70
2022/04/22 11:15:37;;;;;;;;;;;;;;;26.81;23.01;100341.47;4406647;32;19981;-70
2022/04/22 11:18:03;;;;;;;;;;;;;;;26.76;22.68;100348.16;4406140;32;20012;-69
2022/04/22 11:20:28;;;;;;;;;;;;;;;27.03;22.45;100350.38;4406937;32;20658;-70
2022/04/22 11:22:56;;;;;;;;;;;;;;;26.38;23.11;100339.03;4407231;32;20155;-70
2022/04/22 11:25:24;;;;;;;;;;;;;;;26.30;23.42;100338.16;4407786;32;19973;-71
2022/04/22 11:27:50;;;;;;;;;;;;;;;25.92;23.78;100336.06;4409147;32;19954;-70
2022/04/22 11:30:15;;;;;;;;;;;;;;;26.00;23.96;100336.97;4408509;32;19981;-70
2022/04/22 11:32:45;;;;;;;;;;;;;;;25.82;24.24;100329.97;4402809;32;20014;-71
2022/04/22 11:35:13;;;;;;;;;;;;;;;26.23;23.69;100327.28;4409885;32;20083;-70
2022/04/22 11:37:39;;;;;;;;;;;;;;;26.09;23.29;100310.56;4405581;32;20307;-71
2022/04/22 11:40:08;;;;;;;;;;;;;;;26.92;22.47;100318.91;4408486;32;20372;-71
2022/04/22 11:42:43;;;;;;;;;;;;;;;27.20;22.10;100316.06;4405917;32;20162;-70
2022/04/22 11:45:15;;;;;;;;;;;;;;;27.57;21.68;100337.97;4411117;32;20406;-71
2022/04/22 11:47:41;;;;;;;;;;;;;;;27.16;21.64;100323.53;4408720;32;20143;-71
2022/04/22 11:50:07;;;;;;;;;;;;;;;27.15;21.78;100334.31;4408319;32;19961;-71
2022/04/22 11:52:33;;;;;;;;;;;;;;;26.25;22.77;100329.63;4400941;32;20004;-70
2022/04/22 11:55:00;;;;;;;;;;;;;;;26.33;22.42;100327.63;4410241;32;21089;-71
2022/04/22 11:57:26;;;;;;;;;;;;;;;26.67;22.30;100323.44;4408496;32;20367;-71
2022/04/22 12:05:32;;;;;;;;;;;;;;;26.82;22.00;100329.34;4408864;32;20323;-70
2022/04/22 12:05:40;;;;;;;;;;;;;;;27.14;21.56;100332.00;4404195;32;20043;-70
2022/04/22 12:08:07;;;;;;;;;;;;;;;27.05;21.88;100336.16;4402544;32;20517;-71
2022/04/22 12:10:33;;;;;;;;;;;;;;;27.30;21.64;100330.06;4391023;32;19961;-71
2022/04/22 12:13:01;;;;;;;;;;;;;;;26.56;22.21;100334.41;4404652;32;20547;-71
2022/04/22 12:15:27;;;;;;;;;;;;;;;26.36;22.51;100338.03;4407217;32;20318;-70
2022/04/22 12:17:52;;;;;;;;;;;;;;;26.55;22.20;100332.88;4406176;32;20093;-71
2022/04/22 12:20:18;;;;;;;;;;;;;;;25.91;23.05;100340.28;4407674;32;20001;-71
2022/04/22 12:22:48;;;;;;;;;;;;;;;25.80;23.03;100337.62;4406625;32;20009;-70
2022/04/22 12:25:14;;;;;;;;;;;;;;;25.01;23.58;100328.78;4408215;32;20001;-70
2022/04/22 12:27:41;;;;;;;;;;;;;;;24.85;24.16;100332.72;4408679;32;20021;-71
2022/04/22 12:30:08;;;;;;;;;;;;;;;24.57;24.44;100320.84;4406432;32;20001;-70
2022/04/22 12:32:36;;;;;;;;;;;;;;;23.62;25.47;100341.91;4407440;32;20023;-70
2022/04/22 12:35:11;;;;;;;;;;;;;;;23.63;25.79;100337.72;4406365;32;20004;-70
2022/04/22 12:37:45;;;;;;;;;;;;;;;23.77;25.78;100319.28;4408059;32;19983;-70
2022/04/22 12:40:11;;;;;;;;;;;;;;;24.02;25.42;100315.09;4406363;32;19975;-70
2022/04/22 12:42:39;;;;;;;;;;;;;;;24.22;25.01;100332.59;4403889;32;20012;-70
2022/04/22 12:53:33;;;;;;;;;;;;;;;25.56;23.86;100317.66;4422912;32;20001;-70
2022/04/22 12:56:00;;;;;;;;;;;;;;;26.31;23.32;100316.62;4428438;32;20377;-70
2022/04/22 12:58:25;;;;;;;;;;;;;;;26.43;22.80;100323.72;4429283;32;20004;-70
2022/04/22 13:00:52;;;;;;;;;;;;;;;26.49;22.57;100315.69;4431133;32;20041;-70
2022/04/22 13:03:17;;;;;;;;;;;;;;;26.19;22.91;100315.31;4430110;32;19970;-70
2022/04/22 13:05:43;;;;;;;;;;;;;;;26.37;22.77;100316.50;4431950;32;20704;-69
2022/04/22 13:08:09;;;;;;;;;;;;;;;25.91;23.97;100314.31;4430142;32;20703;-70
2022/04/22 13:10:35;;;;;;;;;;;;;;;26.54;23.30;100311.91;4430690;32;20648;-69
2022/04/22 13:13:00;;;;;;;;;;;;;;;27.18;22.70;100312.19;4429090;32;20014;-70
2022/04/22 13:15:26;;;;;;;;;;;;;;;27.39;22.22;100315.09;4428693;32;19950;-69
2022/04/22 13:17:53;;;;;;;;;;;;;;;26.50;23.08;100308.59;4431574;32;19976;-69
2022/04/22 13:20:20;;;;;;;;;;;;;;;25.37;24.28;100314.84;4431261;32;20618;-69
2022/04/22 13:22:46;;;;;;;;;;;;;;;24.45;25.07;100302.19;4429275;32;20364;-69
2022/04/22 13:25:12;;;;;;;;;;;;;;;24.04;25.57;100298.84;4430565;32;20042;-69
2022/04/22 13:27:38;;;;;;;;;;;;;;;23.79;25.99;100300.19;4418147;32;20045;-69
2022/04/22 13:30:05;;;;;;;;;;;;;;;23.61;26.28;100292.28;4423783;32;19970;-69
2022/04/22 13:32:31;;;;;;;;;;;;;;;24.03;25.81;100303.06;4428711;32;20075;-69
2022/04/22 13:34:57;;;;;;;;;;;;;;;24.73;25.00;100296.81;4429991;32;20004;-69
2022/04/22 13:37:22;;;;;;;;;;;;;;;24.65;25.09;100295.91;4430221;32;20020;-69
2022/04/22 13:39:48;;;;;;;;;;;;;;;24.76;25.00;100312.22;4430084;32;19992;-70